Terminal Aerodrome Forecast
Issued by NWS

Home | Current Version | Previous Version | Text Only | Print | Product List | Glossary On
Versions: 1 2 3 4 5 6 7 8 9 10 11 12 13 14 15 16
893
FTUS43 KLSX 222320
TAFUIN
TAF
KUIN 222320Z 2300/2324 32007KT P6SM VCTS SCT050CB
      TEMPO 2301/2303 3SM TSRA OVC025CB
     FM230300 34005KT P6SM SCT050
     FM230600 34005KT P6SM BKN050
     FM231500 28005KT P6SM BKN150=

USA.gov is the U.S. government's official web portal to all federal, state and local government web resources and services.